Time;durP1;ratioP1;P1;durP2;ratioP2;P2;SDS_P1;SDS_P2;PMS_P1;PMS_P2;Temp;Humidity;BMP_temperature;BMP_pressure;BME280_temperature;BME280_humidity;BME280_pressure;Samples;Min_cycle;Max_cycle;Signal;HPM_P1;HPM_P2
2021/03/30 00:00:12;;;;;;;4.78;2.30;;;;;;;8.27;50.51;96832.94;4992720;28;20093;-64
2021/03/30 00:02:38;;;;;;;2.95;2.28;;;;;;;8.26;49.99;96834.00;4983546;28;20584;-63
2021/03/30 00:05:04;;;;;;;3.40;2.25;;;;;;;8.38;50.83;96844.50;4973131;28;20038;-63
2021/03/30 00:07:29;;;;;;;3.47;2.03;;;;;;;8.21;50.66;96832.09;4974950;28;20058;-63
2021/03/30 00:09:54;;;;;;;2.60;2.40;;;;;;;8.02;50.64;96801.63;4989678;28;20133;-65
2021/03/30 00:12:20;;;;;;;2.83;2.00;;;;;;;8.37;50.68;96858.81;4978972;28;20038;-62
2021/03/30 00:14:45;;;;;;;4.15;2.17;;;;;;;8.25;50.52;96849.13;4973168;28;20038;-65
2021/03/30 00:17:10;;;;;;;3.95;2.40;;;;;;;8.22;50.69;96841.66;4976226;28;20030;-64
2021/03/30 00:19:36;;;;;;;2.90;2.08;;;;;;;8.29;50.59;96855.53;4994226;28;20492;-64
2021/03/30 00:22:02;;;;;;;6.60;2.58;;;;;;;8.26;50.75;96853.38;4973477;28;20039;-64
2021/03/30 00:24:27;;;;;;;4.53;2.30;;;;;;;8.09;50.72;96836.72;4986986;28;20053;-63
2021/03/30 00:26:52;;;;;;;3.35;1.85;;;;;;;8.16;50.72;96841.84;4990764;28;20039;-65
2021/03/30 00:29:18;;;;;;;4.50;2.40;;;;;;;8.12;50.83;96830.91;4992278;28;20113;-64
2021/03/30 00:31:43;;;;;;;4.55;2.20;;;;;;;7.89;50.53;96797.53;4991699;28;20026;-65
2021/03/30 00:34:09;;;;;;;3.63;2.22;;;;;;;7.77;51.25;96784.38;4974626;28;20109;-63
2021/03/30 00:36:34;;;;;;;3.85;1.98;;;;;;;7.85;50.80;96799.06;4987900;28;20496;-65
2021/03/30 00:38:59;;;;;;;5.15;2.30;;;;;;;7.75;51.20;96785.69;4991853;28;20062;-63
2021/03/30 00:41:25;;;;;;;4.10;1.98;;;;;;;8.13;50.84;96847.63;4986082;28;20580;-64
2021/03/30 00:43:50;;;;;;;4.80;2.05;;;;;;;8.12;51.25;96840.72;4972403;28;20035;-63
2021/03/30 00:46:17;;;;;;;4.18;2.00;;;;;;;7.66;51.20;96768.59;4993879;28;20072;-64
2021/03/30 00:48:49;;;;;;;4.82;2.28;;;;;;;7.85;50.86;96803.56;4991489;28;20062;-64
2021/03/30 00:51:18;;;;;;;2.72;1.83;;;;;;;7.81;51.28;96798.72;4991159;28;20042;-64
2021/03/30 00:53:45;;;;;;;3.25;1.95;;;;;;;7.79;51.02;96800.03;4991463;28;20065;-63
2021/03/30 00:56:10;;;;;;;5.07;2.20;;;;;;;7.84;51.31;96816.00;4987995;28;20041;-64
2021/03/30 00:58:36;;;;;;;7.45;2.40;;;;;;;7.84;51.15;96813.34;4974068;28;20023;-65
2021/03/30 01:01:02;;;;;;;6.35;2.47;;;;;;;7.87;51.18;96820.00;4989523;28;20078;-64
2021/03/30 01:03:27;;;;;;;3.65;2.25;;;;;;;7.81;51.72;96814.63;4991298;28;20401;-62
2021/03/30 01:05:52;;;;;;;2.65;2.13;;;;;;;7.94;51.52;96834.69;4991655;28;20039;-65
2021/03/30 01:08:33;;;;;;;8.02;2.38;;;;;;;7.93;51.54;96835.69;4991462;28;20050;-63
2021/03/30 01:11:07;;;;;;;7.72;2.40;;;;;;;7.91;51.87;96843.09;4991417;28;20528;-64
2021/03/30 01:13:48;;;;;;;9.25;2.83;;;;;;;7.79;51.37;96813.28;4993210;28;20692;-63
2021/03/30 01:16:16;;;;;;;5.45;2.00;;;;;;;7.52;51.79;96779.56;4991831;28;20038;-64
2021/03/30 01:19:06;;;;;;;2.40;1.88;;;;;;;7.90;51.62;96832.75;5002965;28;20041;-64
2021/03/30 01:21:46;;;;;;;4.22;2.00;;;;;;;7.65;51.75;96804.09;4990975;28;20042;-63
2021/03/30 01:24:31;;;;;;;7.70;2.30;;;;;;;7.84;51.36;96845.16;4990017;28;20081;-64
2021/03/30 01:27:22;;;;;;;2.25;2.00;;;;;;;7.83;51.50;96840.91;4991105;28;20077;-64
2021/03/30 01:29:51;;;;;;;3.23;1.90;;;;;;;7.51;52.14;96793.81;4989977;28;20030;-64
2021/03/30 01:32:30;;;;;;;11.68;2.15;;;;;;;7.67;51.25;96816.03;4991073;28;20738;-64
2021/03/30 01:34:58;;;;;;;6.72;1.80;;;;;;;7.78;51.78;96831.03;4991101;28;20032;-64
2021/03/30 01:37:24;;;;;;;5.68;2.00;;;;;;;7.60;51.30;96806.66;4992796;28;20047;-64
2021/03/30 01:39:55;;;;;;;5.30;1.88;;;;;;;7.48;51.52;96796.19;4990480;28;20133;-63
2021/03/30 01:42:24;;;;;;;3.33;2.15;;;;;;;7.43;52.26;96788.97;4977405;28;20070;-64
2021/03/30 01:44:50;;;;;;;3.03;1.92;;;;;;;7.70;51.55;96828.78;4980497;28;20042;-63
2021/03/30 01:47:18;;;;;;;2.80;2.05;;;;;;;7.01;51.81;96722.41;4990591;28;20057;-64
2021/03/30 01:49:44;;;;;;;3.63;2.00;;;;;;;7.34;51.98;96781.66;5005782;28;20054;-65
2021/03/30 01:52:13;;;;;;;6.18;2.00;;;;;;;7.71;51.71;96824.28;4991071;28;20420;-63
2021/03/30 01:54:39;;;;;;;2.72;1.83;;;;;;;7.59;52.07;96810.34;4975159;28;20038;-63
2021/03/30 01:57:06;;;;;;;5.32;2.30;;;;;;;7.44;51.87;96779.16;4971256;28;20042;-63
2021/03/30 01:59:33;;;;;;;4.05;2.28;;;;;;;7.68;52.19;96820.28;4980008;28;20500;-64
2021/03/30 02:02:01;;;;;;;3.72;1.95;;;;;;;7.67;52.33;96815.22;4990038;28;20033;-64
2021/03/30 02:04:28;;;;;;;3.17;1.90;;;;;;;7.34;51.99;96771.09;4992502;28;20057;-63
2021/03/30 02:06:54;;;;;;;5.47;2.55;;;;;;;7.42;52.42;96792.66;4990251;28;20042;-63
2021/03/30 02:09:23;;;;;;;3.22;1.90;;;;;;;7.61;52.05;96818.84;4977317;28;20456;-64
2021/03/30 02:12:40;;;;;;;3.25;1.90;;;;;;;7.26;52.30;96767.78;4970659;28;20043;-63
2021/03/30 02:14:35;;;;;;;3.63;2.17;;;;;;;7.16;52.10;96762.34;4967124;28;20043;-63
2021/03/30 02:17:06;;;;;;;4.13;1.90;;;;;;;7.22;52.27;96758.75;4985505;28;20049;-62
2021/03/30 02:19:53;;;;;;;2.43;1.73;;;;;;;7.56;52.53;96816.94;4972830;28;20078;-63
2021/03/30 02:22:25;;;;;;;4.65;2.03;;;;;;;7.53;52.40;96812.94;4990274;28;20362;-63
2021/03/30 02:24:52;;;;;;;3.35;1.73;;;;;;;7.46;52.84;96806.19;4990165;28;20057;-63
2021/03/30 02:27:18;;;;;;;6.28;1.70;;;;;;;7.21;52.83;96773.00;5005002;28;20539;-63
2021/03/30 02:29:44;;;;;;;2.30;2.08;;;;;;;7.44;52.67;96805.66;4990280;28;20038;-62
2021/03/30 02:32:13;;;;;;;2.50;1.80;;;;;;;7.33;52.42;96783.50;4989774;28;20067;-63
2021/03/30 02:34:39;;;;;;;1.85;1.65;;;;;;;7.36;52.61;96796.25;4991987;28;20101;-63
2021/03/30 02:37:06;;;;;;;4.45;1.80;;;;;;;7.33;52.09;96791.47;4988861;28;20034;-64
2021/03/30 02:39:31;;;;;;;7.30;1.95;;;;;;;7.24;52.36;96782.31;4989356;28;20093;-64
2021/03/30 02:41:58;;;;;;;2.95;1.98;;;;;;;7.42;52.73;96815.66;4988393;28;20432;-64
2021/03/30 02:44:25;;;;;;;4.88;2.15;;;;;;;7.15;52.50;96779.28;4989922;28;20084;-63
2021/03/30 02:46:53;;;;;;;3.00;2.28;;;;;;;7.35;53.15;96799.94;4989731;28;20026;-63
2021/03/30 02:49:21;;;;;;;2.22;1.98;;;;;;;7.34;52.41;96806.28;4991748;28;20026;-63
2021/03/30 02:51:48;;;;;;;3.50;1.90;;;;;;;7.20;52.85;96782.00;4989237;28;20568;-63
2021/03/30 02:54:16;;;;;;;3.78;2.00;;;;;;;7.21;52.81;96783.59;4989786;28;20081;-63
2021/03/30 02:56:42;;;;;;;3.42;1.75;;;;;;;7.24;52.61;96783.13;4988171;28;20033;-65
2021/03/30 02:59:09;;;;;;;7.05;2.08;;;;;;;7.34;52.42;96808.13;4989735;28;20101;-63
2021/03/30 03:01:35;;;;;;;5.15;1.95;;;;;;;7.09;52.65;96790.81;4989953;28;20038;-62
2021/03/30 03:04:02;;;;;;;2.67;1.70;;;;;;;7.19;52.90;96801.56;4989547;28;20038;-63
2021/03/30 03:06:29;;;;;;;4.40;2.35;;;;;;;7.11;52.80;96788.72;4989387;28;20031;-63
2021/03/30 03:08:55;;;;;;;3.17;1.63;;;;;;;7.00;52.67;96787.75;4989195;28;20034;-63
2021/03/30 03:11:21;;;;;;;3.45;1.98;;;;;;;7.10;52.59;96802.19;4989436;28;20385;-63
2021/03/30 03:13:49;;;;;;;3.92;1.85;;;;;;;6.92;53.47;96795.31;4989428;28;20031;-64
2021/03/30 03:16:17;;;;;;;2.67;1.80;;;;;;;7.02;52.57;96779.59;5006079;28;20026;-62
2021/03/30 03:18:44;;;;;;;4.65;1.92;;;;;;;7.17;53.05;96811.59;4989022;28;20053;-62
2021/03/30 03:21:10;;;;;;;2.80;1.67;;;;;;;6.83;52.86;96743.84;4987750;28;20100;-62
2021/03/30 03:23:38;;;;;;;4.13;1.83;;;;;;;7.17;52.59;96806.31;4989172;28;20058;-64
2021/03/30 03:26:06;;;;;;;2.53;1.65;;;;;;;7.10;52.62;96802.19;4989195;28;20060;-62
2021/03/30 03:28:31;;;;;;;5.38;1.90;;;;;;;6.97;52.64;96776.88;4990958;28;20018;-64
2021/03/30 03:30:57;;;;;;;4.15;2.10;;;;;;;7.22;52.56;96806.38;4989185;28;20045;-63
2021/03/30 03:33:23;;;;;;;2.58;2.03;;;;;;;7.15;52.41;96797.00;4988736;28;20518;-64
2021/03/30 03:36:00;;;;;;;3.83;2.10;;;;;;;7.16;52.23;96801.22;4989261;28;20034;-62
2021/03/30 03:38:25;;;;;;;6.68;2.88;;;;;;;6.78;52.33;96748.00;4988855;28;20096;-63
2021/03/30 03:40:51;;;;;;;3.75;2.00;;;;;;;6.79;52.88;96748.81;4989045;28;20030;-63
2021/03/30 03:43:16;;;;;;;5.53;2.10;;;;;;;6.80;52.63;96749.59;4990769;28;20058;-63
2021/03/30 03:45:42;;;;;;;4.30;2.22;;;;;;;6.64;52.68;96733.50;4987721;28;20042;-63
2021/03/30 03:48:07;;;;;;;5.85;2.50;;;;;;;6.90;53.01;96786.81;4988769;28;20034;-64
2021/03/30 03:50:32;;;;;;;5.75;2.30;;;;;;;6.89;52.67;96786.00;5003903;28;20093;-64
2021/03/30 03:52:59;;;;;;;2.00;1.80;;;;;;;6.92;53.48;96795.31;4988666;28;20029;-64
2021/03/30 03:55:24;;;;;;;4.97;2.50;;;;;;;6.95;53.44;96797.47;5005990;28;20495;-63
2021/03/30 03:57:53;;;;;;;5.03;1.90;;;;;;;6.57;52.91;96738.16;4988749;28;20046;-63
2021/03/30 04:00:20;;;;;;;6.82;2.22;;;;;;;6.81;53.09;96782.94;4987506;28;20054;-64
2021/03/30 04:02:51;;;;;;;3.05;2.20;;;;;;;6.82;53.20;96797.78;4987168;28;20043;-64
2021/03/30 04:05:22;;;;;;;7.83;2.23;;;;;;;6.86;53.54;96809.47;4988843;28;20041;-63
2021/03/30 04:07:50;;;;;;;4.20;1.83;;;;;;;6.88;53.60;96820.63;4988758;28;20469;-64
2021/03/30 04:10:18;;;;;;;3.50;2.30;;;;;;;6.46;53.43;96760.97;4990719;28;20041;-63
2021/03/30 04:12:44;;;;;;;7.47;2.53;;;;;;;6.54;53.62;96770.34;4988480;28;20488;-62
2021/03/30 04:15:10;;;;;;;5.45;2.35;;;;;;;6.78;53.31;96818.63;4976817;28;20051;-65
2021/03/30 04:17:36;;;;;;;3.90;2.30;;;;;;;6.72;53.41;96814.28;4976729;28;20077;-64
2021/03/30 04:20:11;;;;;;;10.73;2.95;;;;;;;6.62;54.51;96812.25;4986086;28;20413;-64
2021/03/30 04:22:37;;;;;;;5.70;3.05;;;;;;;6.49;54.53;96804.59;4970995;28;20053;-64
2021/03/30 04:25:04;;;;;;;3.97;2.97;;;;;;;6.62;54.68;96824.69;5002880;28;20026;-62
2021/03/30 04:27:31;;;;;;;9.27;2.78;;;;;;;6.43;54.30;96795.00;4975399;28;20035;-61
2021/03/30 04:29:56;;;;;;;5.72;2.95;;;;;;;6.47;54.48;96812.00;4972738;28;20035;-65
2021/03/30 04:32:22;;;;;;;3.83;2.35;;;;;;;6.28;55.00;96784.94;4971578;28;20181;-65
2021/03/30 04:34:47;;;;;;;5.45;2.88;;;;;;;6.48;54.90;96829.44;4972867;28;20022;-66
2021/03/30 04:37:13;;;;;;;5.97;2.55;;;;;;;6.35;54.88;96805.97;4975421;28;20126;-65
2021/03/30 04:39:38;;;;;;;3.17;2.08;;;;;;;6.43;55.56;96824.06;4987955;28;20050;-64
2021/03/30 04:42:04;;;;;;;4.68;2.70;;;;;;;6.40;54.93;96827.19;4981915;28;20437;-66
2021/03/30 04:44:29;;;;;;;5.18;2.33;;;;;;;6.24;55.41;96803.13;4980033;28;20038;-65
2021/03/30 04:46:54;;;;;;;4.60;2.90;;;;;;;6.35;55.52;96832.38;4991315;28;20034;-66
2021/03/30 04:49:20;;;;;;;5.32;3.33;;;;;;;6.41;56.00;96828.78;4975233;28;20061;-66
2021/03/30 04:51:46;;;;;;;5.93;3.30;;;;;;;6.25;55.29;96796.00;4989523;28;20114;-66
2021/03/30 04:54:11;;;;;;;9.10;3.38;;;;;;;6.40;55.46;96853.63;4993060;28;20117;-66
2021/03/30 04:56:37;;;;;;;4.97;3.15;;;;;;;6.21;55.51;96802.78;4985513;28;20046;-66
2021/03/30 04:59:03;;;;;;;6.43;3.40;;;;;;;6.27;56.02;96814.25;4974655;28;20102;-66
2021/03/30 05:01:29;;;;;;;8.52;3.65;;;;;;;6.31;56.05;96831.25;4992844;28;20026;-66
2021/03/30 05:03:54;;;;;;;6.93;3.70;;;;;;;6.07;56.24;96781.09;4992719;28;20039;-66
2021/03/30 05:06:20;;;;;;;5.60;3.20;;;;;;;6.26;56.23;96818.72;4992866;28;20523;-65
2021/03/30 05:08:45;;;;;;;3.72;2.60;;;;;;;6.28;56.23;96826.41;4982571;28;20035;-66
2021/03/30 05:11:11;;;;;;;5.85;3.60;;;;;;;6.26;55.71;96824.03;4973090;28;20503;-65
2021/03/30 05:13:37;;;;;;;11.60;3.83;;;;;;;6.39;55.88;96844.06;4989772;28;20033;-66
2021/03/30 05:16:02;;;;;;;14.60;4.05;;;;;;;6.41;55.70;96842.81;4973108;28;20067;-65
2021/03/30 05:18:28;;;;;;;12.25;3.72;;;;;;;6.26;56.31;96824.03;4983207;28;20038;-66
2021/03/30 05:20:53;;;;;;;14.23;3.65;;;;;;;6.10;56.55;96800.97;4982416;28;20489;-65
2021/03/30 05:23:18;;;;;;;15.32;4.15;;;;;;;5.60;56.27;96725.75;4972496;28;20082;-66
2021/03/30 05:25:44;;;;;;;10.50;3.58;;;;;;;5.82;56.10;96754.16;4971755;28;20384;-65
2021/03/30 05:28:09;;;;;;;12.90;3.60;;;;;;;6.44;57.04;96830.94;4974493;28;20026;-66
2021/03/30 05:30:35;;;;;;;14.02;4.05;;;;;;;6.49;56.68;96837.13;4972612;28;20062;-66
2021/03/30 05:33:00;;;;;;;8.98;3.78;;;;;;;6.61;56.25;96844.25;4982864;28;20041;-66
2021/03/30 05:35:26;;;;;;;11.75;4.07;;;;;;;6.75;56.36;96853.47;4992035;28;20385;-66
2021/03/30 05:37:52;;;;;;;14.05;4.10;;;;;;;6.80;55.81;96845.63;4991447;28;20033;-66
2021/03/30 05:40:19;;;;;;;13.43;4.57;;;;;;;6.74;55.59;96826.22;4993831;28;20046;-65
2021/03/30 05:42:46;;;;;;;11.80;4.50;;;;;;;6.84;56.28;96836.19;4991459;28;20140;-66
2021/03/30 05:45:13;;;;;;;22.95;4.70;;;;;;;7.03;55.73;96855.28;4991786;28;20053;-64
2021/03/30 05:47:39;;;;;;;12.20;5.05;;;;;;;7.04;55.84;96841.81;4991455;28;20034;-63
2021/03/30 05:50:13;;;;;;;10.65;5.03;;;;;;;7.22;55.33;96853.22;4991474;28;20064;-64
2021/03/30 05:52:46;;;;;;;10.90;4.20;;;;;;;7.30;54.69;96856.25;4993578;28;20022;-64
2021/03/30 05:55:27;;;;;;;11.98;4.47;;;;;;;7.42;54.35;96861.50;4992343;28;20066;-63
2021/03/30 05:57:54;;;;;;;16.30;4.55;;;;;;;7.52;55.13;96863.47;4991679;28;20677;-64
2021/03/30 06:00:22;;;;;;;11.27;3.80;;;;;;;7.62;53.92;96860.16;4991618;28;20046;-63
2021/03/30 06:02:51;;;;;;;9.88;3.75;;;;;;;7.70;54.47;96857.91;4991471;28;20034;-64
2021/03/30 06:05:17;;;;;;;5.22;3.30;;;;;;;7.84;53.77;96863.69;4991820;28;20037;-64
2021/03/30 06:07:43;;;;;;;9.57;3.97;;;;;;;7.97;53.39;96865.97;4991274;28;20026;-63
2021/03/30 06:10:12;;;;;;;9.68;4.00;;;;;;;8.11;53.20;96871.72;4993379;28;20130;-65
2021/03/30 06:12:37;;;;;;;16.52;3.25;;;;;;;8.10;53.34;96854.22;4991319;28;20042;-67
2021/03/30 06:15:05;;;;;;;13.23;3.10;;;;;;;8.24;52.58;96860.78;4991463;28;20104;-66
2021/03/30 06:17:45;;;;;;;13.40;3.22;;;;;;;8.51;51.94;96875.97;4991175;28;20077;-67
2021/03/30 06:20:14;;;;;;;10.35;3.08;;;;;;;8.53;51.69;96868.53;4990669;28;20668;-65
2021/03/30 06:22:54;;;;;;;9.25;3.08;;;;;;;8.69;51.50;96864.22;4992920;28;20022;-63
2021/03/30 06:25:37;;;;;;;12.73;2.80;;;;;;;8.94;51.11;96871.63;4991683;28;20528;-65
2021/03/30 06:28:29;;;;;;;14.30;3.38;;;;;;;9.07;51.00;96873.91;4990685;28;20042;-71
2021/03/30 06:31:02;;;;;;;8.52;2.83;;;;;;;9.19;50.86;96871.88;4991202;28;20125;-65
2021/03/30 06:33:29;;;;;;;13.88;3.05;;;;;;;9.27;49.60;96879.38;4976918;28;20469;-66
2021/03/30 06:36:22;;;;;;;11.52;2.63;;;;;;;9.46;49.50;96879.78;4979842;28;20488;-63
2021/03/30 06:38:47;;;;;;;8.32;2.58;;;;;;;9.53;48.55;96872.41;4989198;28;20042;-65
2021/03/30 06:41:31;;;;;;;10.07;2.63;;;;;;;9.56;48.11;96866.59;4990540;28;20049;-68
2021/03/30 06:44:28;;;;;;;10.18;2.40;;;;;;;9.85;48.39;96880.34;4991011;28;20105;-66
2021/03/30 06:47:00;;;;;;;7.18;2.30;;;;;;;9.78;47.39;96881.63;4990656;28;20026;-68
2021/03/30 06:49:28;;;;;;;4.82;2.50;;;;;;;9.97;46.56;96876.69;4991824;28;20105;-68
2021/03/30 06:51:54;;;;;;;9.63;2.75;;;;;;;10.15;46.21;96876.25;4972534;28;20468;-69
2021/03/30 06:54:20;;;;;;;4.85;2.13;;;;;;;10.40;46.23;96875.63;4984275;28;20133;-66
2021/03/30 06:56:51;;;;;;;5.63;2.00;;;;;;;10.39;45.37;96876.69;4990341;28;20077;-65
2021/03/30 06:59:17;;;;;;;11.30;2.78;;;;;;;10.62;44.98;96872.75;4990582;28;20049;-61
2021/03/30 07:01:45;;;;;;;5.40;2.10;;;;;;;10.59;44.99;96846.66;4990199;28;20113;-65
2021/03/30 07:04:11;;;;;;;8.50;2.50;;;;;;;10.89;44.77;96876.00;4973060;28;20034;-62
2021/03/30 07:06:38;;;;;;;7.28;2.60;;;;;;;11.03;44.56;96872.84;4971149;28;20039;-62
2021/03/30 07:09:04;;;;;;;6.82;2.47;;;;;;;11.17;44.11;96866.75;4970903;28;20043;-63
2021/03/30 07:11:32;;;;;;;11.93;2.95;;;;;;;11.11;44.21;96859.03;4971051;28;20047;-64
2021/03/30 07:13:58;;;;;;;10.48;2.78;;;;;;;11.25;44.31;96862.75;4971210;28;20030;-63
2021/03/30 07:16:29;;;;;;;17.08;2.75;;;;;;;11.08;43.70;96846.25;4971644;28;20393;-65
2021/03/30 07:18:57;;;;;;;5.85;2.67;;;;;;;11.31;44.24;96853.72;4988928;28;20046;-66
2021/03/30 07:21:26;;;;;;;8.70;2.55;;;;;;;11.78;43.70;96868.63;4976362;28;20485;-65
2021/03/30 07:23:57;;;;;;;6.63;2.35;;;;;;;11.85;43.00;96873.69;4971160;28;20034;-64
2021/03/30 07:26:24;;;;;;;6.65;2.53;;;;;;;11.84;43.06;96870.22;4976302;28;20504;-66
2021/03/30 07:28:57;;;;;;;8.90;3.42;;;;;;;11.66;44.04;96852.09;4989869;28;20034;-63
2021/03/30 07:31:27;;;;;;;12.25;3.00;;;;;;;11.70;44.42;96871.81;4991827;28;20026;-64
2021/03/30 07:34:01;;;;;;;7.72;3.05;;;;;;;11.81;43.96;96865.38;4989017;28;20039;-64
2021/03/30 07:36:31;;;;;;;8.50;2.90;;;;;;;11.84;45.33;96850.78;4974900;28;20051;-64
2021/03/30 07:39:01;;;;;;;12.18;3.35;;;;;;;12.27;43.66;96869.84;4980492;28;20038;-65
2021/03/30 07:41:28;;;;;;;7.70;3.13;;;;;;;12.26;43.24;96857.59;4988307;28;20049;-69
2021/03/30 07:44:00;;;;;;;5.88;2.50;;;;;;;12.62;41.94;96867.03;4990154;28;20476;-68
2021/03/30 07:46:26;;;;;;;10.10;2.60;;;;;;;12.47;42.43;96859.91;4990882;28;20048;-67
2021/03/30 07:48:53;;;;;;;10.73;2.72;;;;;;;12.69;42.10;96838.19;4989894;28;20050;-69
2021/03/30 07:51:23;;;;;;;8.07;2.90;;;;;;;12.98;41.35;96864.19;4987913;28;20173;-66
2021/03/30 07:53:55;;;;;;;6.60;2.70;;;;;;;12.97;41.90;96870.59;4981211;28;20494;-66
2021/03/30 07:56:20;;;;;;;6.15;2.65;;;;;;;13.09;41.11;96863.03;4958564;28;20456;-66
2021/03/30 07:58:45;;;;;;;6.25;2.40;;;;;;;13.43;40.94;96867.66;4989831;28;20034;-69
2021/03/30 08:01:13;;;;;;;6.25;2.70;;;;;;;13.62;40.77;96868.56;4992608;28;20041;-67
2021/03/30 08:03:41;;;;;;;6.18;2.88;;;;;;;13.19;40.76;96862.97;4978080;28;20424;-67
2021/03/30 08:06:17;;;;;;;9.85;2.78;;;;;;;13.47;41.02;96866.81;4974517;28;20043;-66
2021/03/30 08:09:00;;;;;;;11.02;3.10;;;;;;;13.79;40.28;96860.91;4982030;28;20056;-67
2021/03/30 08:11:42;;;;;;;7.43;2.85;;;;;;;13.83;40.14;96869.16;4987505;28;20039;-67
2021/03/30 08:14:10;;;;;;;12.70;3.30;;;;;;;13.95;39.89;96856.19;4974368;28;20093;-67
2021/03/30 08:16:38;;;;;;;8.15;3.10;;;;;;;14.26;39.67;96866.59;4976030;28;20030;-67
2021/03/30 08:19:09;;;;;;;10.38;3.20;;;;;;;14.21;39.65;96859.41;4973708;28;20058;-67
2021/03/30 08:21:54;;;;;;;8.73;2.92;;;;;;;14.37;38.62;96867.25;4988522;28;20489;-67
2021/03/30 08:24:20;;;;;;;8.70;3.05;;;;;;;11.63;38.42;96407.53;4993369;28;20429;-69
2021/03/30 08:26:47;;;;;;;20.48;3.78;;;;;;;14.56;38.35;96860.91;4991626;28;20116;-69
2021/03/30 08:29:19;;;;;;;12.35;3.42;;;;;;;14.62;37.41;96868.88;4992899;28;20504;-67
2021/03/30 08:31:46;;;;;;;10.65;3.90;;;;;;;14.75;37.23;96852.91;4992948;28;20030;-68
2021/03/30 08:34:26;;;;;;;9.60;3.38;;;;;;;14.75;36.79;96857.47;4993588;28;20022;-67
2021/03/30 08:36:56;;;;;;;11.00;3.78;;;;;;;15.02;36.20;96867.53;4991729;28;20046;-68
2021/03/30 08:39:21;;;;;;;8.15;3.70;;;;;;;15.14;35.96;96883.16;4991784;28;20703;-67
2021/03/30 08:41:47;;;;;;;13.57;4.13;;;;;;;14.79;35.52;96869.16;4992685;28;20129;-70
2021/03/30 08:44:36;;;;;;;6.18;3.85;;;;;;;14.97;36.27;96864.91;4993112;28;20042;-67
2021/03/30 08:47:02;;;;;;;8.82;4.07;;;;;;;15.38;35.20;96861.63;4992178;28;20097;-69
2021/03/30 08:49:42;;;;;;;8.45;4.50;;;;;;;15.45;33.88;96870.88;4994152;28;20085;-68
2021/03/30 08:52:13;;;;;;;8.57;3.85;;;;;;;15.59;33.99;96862.91;4973432;28;20397;-68
2021/03/30 08:54:52;;;;;;;14.18;4.20;;;;;;;15.57;33.63;96849.78;4988971;28;20039;-66
2021/03/30 08:57:28;;;;;;;9.80;3.83;;;;;;;15.66;33.03;96866.06;4992589;28;20034;-68
2021/03/30 08:59:55;;;;;;;11.02;4.40;;;;;;;15.74;31.92;96861.88;4981475;28;20038;-66
2021/03/30 09:02:26;;;;;;;8.07;3.97;;;;;;;15.61;31.93;96828.56;4976962;28;20041;-69
2021/03/30 09:04:52;;;;;;;17.58;4.60;;;;;;;15.70;32.43;96832.16;4992647;28;20037;-68
2021/03/30 09:07:19;;;;;;;21.30;4.78;;;;;;;15.55;31.86;96794.84;4994297;28;20391;-66
2021/03/30 09:09:46;;;;;;;10.25;5.20;;;;;;;15.94;32.42;96866.88;4992772;28;20487;-67
2021/03/30 09:12:18;;;;;;;12.30;5.00;;;;;;;16.29;31.91;96864.66;4990615;28;20039;-66
2021/03/30 09:14:44;;;;;;;21.95;5.75;;;;;;;16.07;32.13;96863.44;4983957;28;20454;-66
2021/03/30 09:17:11;;;;;;;14.45;5.15;;;;;;;16.17;32.32;96829.41;4972727;28;20402;-67
2021/03/30 09:19:51;;;;;;;13.70;5.70;;;;;;;16.41;31.34;96854.19;4974605;28;20097;-67
2021/03/30 09:22:23;;;;;;;20.23;6.57;;;;;;;16.34;31.20;96837.69;4992256;28;20038;-67
2021/03/30 09:25:23;;;;;;;17.77;6.53;;;;;;;16.66;31.35;96854.78;4975564;28;20031;-67
2021/03/30 09:27:48;;;;;;;15.25;7.00;;;;;;;16.24;31.09;96781.50;4987912;28;20039;-65
2021/03/30 09:30:17;;;;;;;16.85;6.95;;;;;;;16.66;31.43;96849.41;4992069;28;20153;-67
2021/03/30 09:32:44;;;;;;;14.48;8.88;;;;;;;16.84;31.09;96853.88;4984026;28;20047;-66
2021/03/30 09:35:15;;;;;;;19.55;8.07;;;;;;;16.64;31.08;96834.38;4972817;28;20039;-66
2021/03/30 09:38:01;;;;;;;23.57;9.70;;;;;;;16.60;31.58;96817.25;4974292;28;20125;-66
2021/03/30 09:40:30;;;;;;;13.88;8.02;;;;;;;17.03;30.74;96846.44;4992104;28;20046;-66
2021/03/30 09:42:57;;;;;;;16.48;8.88;;;;;;;17.20;30.80;96847.69;4991579;28;20042;-66
2021/03/30 09:45:29;;;;;;;14.90;8.10;;;;;;;17.11;30.66;96851.13;4991797;28;20039;-66
2021/03/30 09:47:55;;;;;;;15.55;6.72;;;;;;;16.79;29.76;96776.06;4980538;28;20046;-66
2021/03/30 09:50:23;;;;;;;8.40;5.75;;;;;;;16.44;29.27;96746.16;4977204;28;20026;-67
2021/03/30 09:52:50;;;;;;;13.35;5.80;;;;;;;17.55;28.99;96844.16;4990606;28;20412;-66
2021/03/30 09:55:33;;;;;;;9.90;5.13;;;;;;;17.67;28.64;96843.59;4974100;28;20548;-66
2021/03/30 09:58:00;;;;;;;9.00;5.40;;;;;;;17.26;28.04;96795.41;4971752;28;20097;-67
2021/03/30 10:00:27;;;;;;;15.80;5.47;;;;;;;17.71;28.44;96811.47;4985796;28;20125;-66
2021/03/30 10:02:53;;;;;;;14.45;5.40;;;;;;;17.78;28.24;96850.34;4991227;28;20084;-66
2021/03/30 10:05:19;;;;;;;13.60;5.80;;;;;;;17.91;28.30;96841.41;4986807;28;20039;-67
2021/03/30 10:07:44;;;;;;;7.68;5.35;;;;;;;17.34;27.63;96773.91;4971937;28;20418;-66
2021/03/30 10:10:12;;;;;;;9.38;5.22;;;;;;;17.91;26.00;96843.28;4993338;28;20105;-67
2021/03/30 10:12:46;;;;;;;8.65;4.43;;;;;;;17.78;23.98;96836.88;4975461;28;20098;-66
2021/03/30 10:15:12;;;;;;;12.18;5.22;;;;;;;17.93;24.93;96831.09;4971773;28;20042;-67
2021/03/30 10:17:37;;;;;;;9.80;5.75;;;;;;;18.17;26.07;96836.13;4970097;28;20395;-67
2021/03/30 10:20:03;;;;;;;7.40;5.45;;;;;;;17.85;26.40;96812.22;4972504;28;20046;-67
2021/03/30 10:22:33;;;;;;;10.70;5.55;;;;;;;17.88;26.36;96780.09;4992950;28;20033;-67
2021/03/30 10:25:21;;;;;;;5.05;4.50;;;;;;;18.12;25.11;96830.88;4972121;28;20444;-67
2021/03/30 10:27:58;;;;;;;5.47;4.30;;;;;;;18.48;24.69;96831.78;4987612;28;20079;-67
2021/03/30 10:30:45;;;;;;;6.47;4.22;;;;;;;18.45;24.12;96827.81;4991284;28;20125;-66
2021/03/30 10:33:15;;;;;;;4.30;3.90;;;;;;;18.35;23.25;96823.50;4990863;28;20046;-67
2021/03/30 10:35:42;;;;;;;9.52;5.03;;;;;;;18.58;24.36;96816.13;4991139;28;20089;-66
2021/03/30 10:38:08;;;;;;;8.35;4.93;;;;;;;18.61;25.28;96820.88;4990824;28;20034;-69
2021/03/30 10:40:39;;;;;;;7.47;5.28;;;;;;;18.75;25.20;96796.50;4991520;28;20056;-69
2021/03/30 10:43:20;;;;;;;12.65;5.47;;;;;;;18.83;25.55;96811.09;4990429;28;20038;-70
2021/03/30 10:45:46;;;;;;;5.05;4.22;;;;;;;18.36;25.66;96728.09;4973018;28;20042;-70
2021/03/30 10:48:12;;;;;;;8.60;4.80;;;;;;;18.95;25.85;96801.28;4983050;28;20061;-69
2021/03/30 10:50:37;;;;;;;8.52;5.00;;;;;;;19.15;25.65;96805.25;4989184;28;20081;-70
2021/03/30 10:53:03;;;;;;;8.27;5.05;;;;;;;19.15;26.09;96805.25;4990391;28;20730;-69
2021/03/30 10:55:29;;;;;;;7.93;5.30;;;;;;;19.24;26.25;96805.22;4992710;28;20037;-75
2021/03/30 10:57:55;;;;;;;15.93;5.68;;;;;;;19.01;26.31;96769.56;4989055;28;20034;-65
2021/03/30 11:00:21;;;;;;;9.85;4.78;;;;;;;18.96;25.62;96754.31;4989288;28;20046;-69
2021/03/30 11:02:46;;;;;;;9.70;4.50;;;;;;;19.30;25.38;96793.19;4990380;28;20057;-69
2021/03/30 11:05:13;;;;;;;10.40;5.47;;;;;;;18.91;25.45;96710.56;4986611;28;20039;-68
2021/03/30 11:07:38;;;;;;;9.18;4.63;;;;;;;18.98;25.22;96769.38;4973006;28;20029;-67
2021/03/30 11:10:08;;;;;;;7.28;4.97;;;;;;;18.95;25.90;96760.84;4971742;28;20034;-65
2021/03/30 11:12:35;;;;;;;7.63;5.90;;;;;;;19.29;25.40;96748.41;4970420;28;20047;-66
2021/03/30 11:15:01;;;;;;;7.60;5.70;;;;;;;19.47;25.57;96774.25;4995016;28;20050;-65
2021/03/30 11:17:27;;;;;;;7.75;5.40;;;;;;;18.96;25.29;96705.00;4982940;28;20085;-67
2021/03/30 11:19:52;;;;;;;10.10;5.70;;;;;;;19.41;24.80;96772.06;4971609;28;20110;-68
2021/03/30 11:22:17;;;;;;;9.90;5.22;;;;;;;19.03;25.47;96697.22;4991597;28;20054;-67
2021/03/30 11:24:43;;;;;;;5.82;5.22;;;;;;;19.27;25.94;96766.03;4990234;28;20057;-67
2021/03/30 11:27:09;;;;;;;7.05;4.25;;;;;;;19.44;25.30;96741.72;4978466;28;20042;-68
2021/03/30 11:34:50;;;;;;;5.35;4.50;;;;;;;19.72;24.52;96755.63;4970716;28;20034;-70
2021/03/30 11:39:42;;;;;;;25.52;16.75;;;;;;;19.77;25.62;96731.16;4974432;28;20051;-69
2021/03/30 11:42:08;;;;;;;5.40;4.90;;;;;;;19.87;25.23;96730.81;4985553;28;20097;-69
2021/03/30 11:44:34;;;;;;;9.45;5.28;;;;;;;20.06;25.66;96730.38;4987287;28;20121;-69
2021/03/30 11:47:00;;;;;;;7.80;5.35;;;;;;;19.94;25.87;96722.97;4974756;28;20058;-69
2021/03/30 11:49:30;;;;;;;8.32;5.15;;;;;;;19.34;26.25;96640.31;4975069;28;20041;-67
2021/03/30 11:51:56;;;;;;;10.05;5.72;;;;;;;19.79;25.72;96706.53;4974185;28;20488;-69